Time;durP1;ratioP1;P1;durP2;ratioP2;P2;SDS_P1;SDS_P2;PMS_P1;PMS_P2;Temp;Humidity;BMP_temperature;BMP_pressure;BME280_temperature;BME280_humidity;BME280_pressure;Samples;Min_cycle;Max_cycle;Signal;HPM_P1;HPM_P2
2022/04/13 00:02:11;;;;;;;8.93;4.00;;;13.60;55.60;;;;;;5047254;28;20116;-76
2022/04/13 00:04:39;;;;;;;9.95;3.65;;;13.50;56.10;;;;;;5031150;28;20195;-76
2022/04/13 00:07:05;;;;;;;7.53;3.85;;;13.60;55.90;;;;;;5031949;28;20029;-77
2022/04/13 00:09:30;;;;;;;11.98;3.60;;;13.50;56.50;;;;;;5030889;28;20116;-76
2022/04/13 00:11:56;;;;;;;11.15;4.15;;;13.50;56.50;;;;;;5030778;28;20124;-76
2022/04/13 00:14:23;;;;;;;9.23;3.30;;;13.50;56.90;;;;;;5030438;28;20108;-76
2022/04/13 00:16:51;;;;;;;7.70;3.60;;;13.50;56.30;;;;;;5047213;28;20418;-76
2022/04/13 00:19:17;;;;;;;9.45;3.50;;;13.40;57.00;;;;;;5032148;28;20063;-76
2022/04/13 00:21:43;;;;;;;6.20;3.60;;;13.50;57.70;;;;;;5047005;28;20095;-76
2022/04/13 00:24:09;;;;;;;9.02;3.40;;;13.50;57.30;;;;;;5030554;28;20029;-75
2022/04/13 00:26:34;;;;;;;10.98;4.10;;;13.40;59.10;;;;;;5031663;28;20512;-75
2022/04/13 00:29:01;;;;;;;8.98;3.80;;;13.40;58.00;;;;;;5031335;28;20021;-75
2022/04/13 00:31:27;;;;;;;7.13;3.80;;;13.40;57.70;;;;;;5031808;28;20026;-76
2022/04/13 00:33:52;;;;;;;9.63;3.67;;;13.30;57.10;;;;;;5031158;28;20098;-76
2022/04/13 00:36:18;;;;;;;5.68;3.63;;;13.30;57.40;;;;;;5031042;28;20053;-77
2022/04/13 00:38:43;;;;;;;6.35;3.72;;;13.30;57.80;;;;;;5031358;28;20336;-75
2022/04/13 00:41:09;;;;;;;8.13;3.55;;;13.30;57.80;;;;;;5031284;28;20110;-74
2022/04/13 00:43:35;;;;;;;7.97;3.88;;;13.20;58.10;;;;;;5031626;28;20036;-76
2022/04/13 00:46:00;;;;;;;9.00;3.83;;;13.20;58.00;;;;;;5046645;28;20048;-76
2022/04/13 00:48:35;;;;;;;11.95;3.50;;;13.10;58.80;;;;;;5030992;28;20115;-77
2022/04/13 00:51:03;;;;;;;7.53;3.95;;;13.10;58.60;;;;;;5031011;28;20395;-76
2022/04/13 00:53:30;;;;;;;9.90;4.10;;;13.10;59.30;;;;;;5026511;28;20037;-77
2022/04/13 00:55:57;;;;;;;6.45;3.33;;;13.10;58.90;;;;;;5013121;28;20030;-76
2022/04/13 00:58:31;;;;;;;9.52;3.53;;;13.10;59.20;;;;;;5031456;28;20071;-76
2022/04/13 01:00:57;;;;;;;7.40;3.50;;;13.00;59.60;;;;;;5030899;28;20033;-75
2022/04/13 01:03:27;;;;;;;10.02;3.80;;;13.00;59.00;;;;;;5030799;28;20107;-76
2022/04/13 01:05:54;;;;;;;7.82;3.40;;;13.00;59.80;;;;;;5031088;28;20033;-76
2022/04/13 01:08:20;;;;;;;7.32;4.05;;;12.90;62.00;;;;;;5030749;28;20061;-75
2022/04/13 01:10:48;;;;;;;7.00;4.05;;;12.90;60.60;;;;;;5030721;28;20454;-75
2022/04/13 01:13:15;;;;;;;9.00;3.83;;;12.90;59.90;;;;;;5031127;28;20172;-75
2022/04/13 01:15:41;;;;;;;8.65;4.07;;;12.90;59.80;;;;;;5030636;28;20128;-76
2022/04/13 01:18:07;;;;;;;12.88;4.22;;;12.90;60.10;;;;;;5030691;28;20030;-76
2022/04/13 01:20:42;;;;;;;6.88;3.95;;;12.90;59.80;;;;;;5029624;28;20091;-75
2022/04/13 01:23:07;;;;;;;5.93;3.70;;;12.80;60.50;;;;;;5030567;28;20036;-76
2022/04/13 01:25:34;;;;;;;13.57;3.97;;;12.80;60.30;;;;;;5031241;28;20026;-76
2022/04/13 01:27:59;;;;;;;6.65;3.67;;;12.80;60.60;;;;;;5030569;28;20562;-76
2022/04/13 01:30:26;;;;;;;8.63;4.35;;;12.80;60.60;;;;;;5030558;28;20487;-76
2022/04/13 01:32:52;;;;;;;7.53;4.22;;;12.70;59.80;;;;;;5030563;28;20780;-76
2022/04/13 01:35:18;;;;;;;10.57;4.38;;;12.70;60.70;;;;;;5033638;28;20129;-76
2022/04/13 01:37:43;;;;;;;11.07;4.30;;;12.70;60.80;;;;;;5050374;28;20108;-77
2022/04/13 01:40:10;;;;;;;9.60;4.47;;;12.70;60.50;;;;;;5050737;28;20063;-76
2022/04/13 01:42:36;;;;;;;9.57;4.32;;;12.50;62.20;;;;;;5049241;28;20033;-76
2022/04/13 01:45:03;;;;;;;10.57;4.57;;;12.50;62.20;;;;;;5050239;28;20029;-75
2022/04/13 01:47:28;;;;;;;7.82;4.25;;;12.50;61.80;;;;;;5050279;28;20052;-75
2022/04/13 01:49:54;;;;;;;9.07;4.78;;;12.50;62.30;;;;;;5050135;28;20053;-76
2022/04/13 01:52:20;;;;;;;10.32;5.10;;;12.50;61.90;;;;;;5050807;28;20123;-77
2022/04/13 01:54:45;;;;;;;15.50;6.30;;;12.40;62.20;;;;;;5050229;28;20091;-77
2022/04/13 01:57:11;;;;;;;10.45;4.88;;;12.50;62.40;;;;;;5049127;28;20056;-75
2022/04/13 01:59:37;;;;;;;13.35;5.00;;;12.40;62.40;;;;;;5053529;28;20095;-74
2022/04/13 02:02:05;;;;;;;8.48;5.03;;;12.40;62.60;;;;;;5054180;28;20033;-76
2022/04/13 02:04:31;;;;;;;7.95;4.50;;;12.20;62.80;;;;;;5054450;28;20025;-75
2022/04/13 02:06:57;;;;;;;13.32;4.88;;;12.20;63.20;;;;;;5053108;28;20025;-76
2022/04/13 02:09:23;;;;;;;10.63;5.28;;;12.20;63.30;;;;;;5054202;28;20233;-76
2022/04/13 02:11:48;;;;;;;10.43;5.53;;;12.10;62.90;;;;;;5054041;28;20495;-76
2022/04/13 02:14:14;;;;;;;13.73;5.80;;;12.10;64.40;;;;;;5053925;28;20033;-74
2022/04/13 02:16:40;;;;;;;10.63;5.30;;;12.10;64.00;;;;;;5054414;28;20029;-76
2022/04/13 02:19:11;;;;;;;10.60;5.35;;;12.10;63.70;;;;;;5053695;28;20164;-76
2022/04/13 02:21:37;;;;;;;11.13;5.55;;;12.00;64.30;;;;;;5053891;28;20047;-76
2022/04/13 02:24:03;;;;;;;8.10;5.28;;;11.90;64.50;;;;;;5052998;28;20047;-76
2022/04/13 02:26:28;;;;;;;13.93;5.15;;;11.90;64.60;;;;;;5053889;28;20025;-75
2022/04/13 02:28:54;;;;;;;9.40;5.10;;;11.90;64.40;;;;;;5053721;28;20082;-74
2022/04/13 02:31:20;;;;;;;9.90;5.00;;;11.90;64.60;;;;;;5054127;28;20013;-75
2022/04/13 02:33:47;;;;;;;12.93;5.43;;;11.80;65.10;;;;;;5053569;28;20033;-74
2022/04/13 02:36:13;;;;;;;12.83;4.63;;;11.80;65.60;;;;;;5052155;28;20080;-76
2022/04/13 02:38:38;;;;;;;9.60;4.93;;;11.80;65.60;;;;;;5053570;28;20060;-76
2022/04/13 02:41:04;;;;;;;11.00;4.75;;;11.80;65.30;;;;;;5053457;28;20043;-75
2022/04/13 02:43:29;;;;;;;10.75;5.03;;;11.80;65.50;;;;;;5053826;28;20017;-74
2022/04/13 02:45:56;;;;;;;11.40;5.65;;;11.80;66.00;;;;;;5053710;28;20043;-75
2022/04/13 02:48:22;;;;;;;11.45;5.38;;;11.80;66.00;;;;;;5053546;28;20033;-74
2022/04/13 02:50:52;;;;;;;9.63;4.90;;;11.70;66.10;;;;;;5053153;28;20115;-75
2022/04/13 02:53:17;;;;;;;12.70;5.40;;;11.70;66.60;;;;;;5053211;28;20124;-75
2022/04/13 02:55:43;;;;;;;6.95;4.38;;;11.70;66.90;;;;;;5052418;28;20128;-75
2022/04/13 02:58:09;;;;;;;14.07;5.15;;;11.70;67.20;;;;;;5053445;28;20040;-75
2022/04/13 03:00:34;;;;;;;9.98;5.13;;;11.70;66.20;;;;;;5053008;28;20036;-75
2022/04/13 03:03:00;;;;;;;8.50;5.20;;;11.80;66.90;;;;;;5051966;28;20044;-75
2022/04/13 03:05:26;;;;;;;9.73;5.07;;;11.80;65.80;;;;;;5052974;28;20385;-76
2022/04/13 03:07:51;;;;;;;13.05;5.43;;;11.80;66.90;;;;;;5051731;28;20031;-76
2022/04/13 03:10:17;;;;;;;10.50;5.75;;;11.80;67.10;;;;;;5053080;28;20098;-76
2022/04/13 03:12:43;;;;;;;8.73;4.95;;;11.80;67.60;;;;;;5052921;28;20053;-76
2022/04/13 03:15:10;;;;;;;11.23;5.35;;;11.80;67.30;;;;;;5051804;28;20028;-75
2022/04/13 03:17:35;;;;;;;11.82;4.90;;;11.80;67.50;;;;;;5052605;28;20132;-76
2022/04/13 03:20:02;;;;;;;9.98;5.30;;;11.70;69.00;;;;;;5052784;28;20112;-76
2022/04/13 03:22:28;;;;;;;11.05;5.53;;;11.70;70.80;;;;;;5053242;28;20025;-74
2022/04/13 03:24:54;;;;;;;9.35;5.13;;;11.60;71.20;;;;;;5052594;28;20110;-75
2022/04/13 03:27:20;;;;;;;13.13;5.30;;;11.60;72.50;;;;;;5052484;28;20505;-76
2022/04/13 03:29:45;;;;;;;13.25;5.68;;;11.50;73.50;;;;;;5052529;28;20056;-75
2022/04/13 03:32:11;;;;;;;17.88;5.75;;;11.50;73.10;;;;;;5051262;28;20057;-75
2022/04/13 03:34:37;;;;;;;11.02;5.00;;;11.60;72.40;;;;;;5052848;28;20028;-74
2022/04/13 03:37:05;;;;;;;14.68;4.78;;;11.60;73.10;;;;;;5052053;28;20067;-75
2022/04/13 03:39:31;;;;;;;13.55;5.55;;;11.60;74.30;;;;;;5052316;28;20382;-74
2022/04/13 03:41:56;;;;;;;11.32;5.43;;;11.60;74.50;;;;;;5052485;28;20026;-74
2022/04/13 03:44:22;;;;;;;9.13;4.88;;;11.60;74.00;;;;;;5051110;28;20025;-75
2022/04/13 03:46:48;;;;;;;16.98;5.93;;;11.60;74.20;;;;;;5051859;28;20379;-75
2022/04/13 03:49:14;;;;;;;13.85;5.57;;;11.70;73.80;;;;;;5052680;28;20459;-76
2022/04/13 03:51:41;;;;;;;17.65;5.72;;;11.70;74.40;;;;;;5052129;28;20040;-76
2022/04/13 03:54:06;;;;;;;13.45;5.25;;;11.70;73.90;;;;;;5050931;28;20029;-75
2022/04/13 03:56:33;;;;;;;10.70;5.55;;;11.70;74.60;;;;;;5051911;28;20093;-77
2022/04/13 03:58:59;;;;;;;16.33;6.25;;;11.70;74.70;;;;;;5051870;28;20032;-76
2022/04/13 04:01:26;;;;;;;10.10;5.93;;;11.50;75.50;;;;;;5052203;28;20033;-75
2022/04/13 04:03:52;;;;;;;11.80;5.55;;;11.50;75.30;;;;;;5050805;28;20078;-76
2022/04/13 04:06:18;;;;;;;12.40;5.18;;;11.50;75.60;;;;;;5050630;28;20171;-76
2022/04/13 04:08:44;;;;;;;11.32;5.10;;;11.50;76.40;;;;;;5051843;28;20456;-75
2022/04/13 04:11:09;;;;;;;18.52;5.40;;;11.50;76.10;;;;;;5051321;28;20029;-75
2022/04/13 04:13:38;;;;;;;15.55;5.15;;;11.40;76.50;;;;;;5052467;28;20029;-75
2022/04/13 04:16:04;;;;;;;12.77;4.50;;;11.40;76.60;;;;;;5051774;28;20052;-75
2022/04/13 04:18:30;;;;;;;8.50;4.57;;;11.30;76.90;;;;;;5051448;28;20025;-76
2022/04/13 04:20:56;;;;;;;13.65;5.40;;;11.40;77.10;;;;;;5050963;28;20159;-74
2022/04/13 04:23:21;;;;;;;16.80;5.65;;;11.40;77.50;;;;;;5051495;28;20037;-75
2022/04/13 04:25:47;;;;;;;10.27;5.28;;;11.50;76.90;;;;;;5051396;28;20122;-75
2022/04/13 04:28:13;;;;;;;19.90;5.32;;;11.60;76.30;;;;;;5051842;28;20098;-75
2022/04/13 04:30:39;;;;;;;23.00;5.75;;;11.60;76.40;;;;;;5051248;28;20029;-75
2022/04/13 04:33:06;;;;;;;14.05;5.18;;;11.60;76.70;;;;;;5051207;28;20029;-76
2022/04/13 04:35:32;;;;;;;7.63;3.95;;;11.50;77.70;;;;;;5050824;28;20103;-74
2022/04/13 04:37:59;;;;;;;10.73;4.47;;;11.40;77.60;;;;;;5051354;28;20021;-74
2022/04/13 04:40:26;;;;;;;8.07;4.35;;;11.40;76.70;;;;;;5051669;28;20104;-75
2022/04/13 04:42:52;;;;;;;9.23;3.38;;;11.40;74.70;;;;;;5051306;28;20033;-75
2022/04/13 04:45:19;;;;;;;7.82;3.53;;;11.50;73.00;;;;;;5051276;28;20029;-75
2022/04/13 04:47:45;;;;;;;7.53;4.07;;;11.60;72.30;;;;;;5051218;28;20366;-76
2022/04/13 04:50:11;;;;;;;10.50;3.58;;;11.60;72.60;;;;;;5050967;28;20037;-76
2022/04/13 04:52:41;;;;;;;6.80;3.50;;;11.70;71.80;;;;;;5051415;28;20017;-75
2022/04/13 04:55:08;;;;;;;14.40;3.50;;;11.80;71.80;;;;;;5051009;28;20112;-75
2022/04/13 04:57:34;;;;;;;9.38;3.78;;;11.90;71.40;;;;;;5050837;28;20041;-76
2022/04/13 04:59:59;;;;;;;8.05;3.55;;;11.90;72.20;;;;;;5050645;28;20044;-76
2022/04/13 05:02:25;;;;;;;9.13;3.55;;;11.90;72.40;;;;;;5050646;28;20048;-75
2022/04/13 05:04:51;;;;;;;8.90;3.90;;;11.90;72.40;;;;;;5050812;28;20068;-76
2022/04/13 05:07:16;;;;;;;8.13;3.95;;;12.00;72.10;;;;;;5051196;28;20021;-75
2022/04/13 05:09:42;;;;;;;6.22;3.28;;;12.00;71.60;;;;;;5050736;28;20025;-76
2022/04/13 05:12:08;;;;;;;7.15;3.08;;;12.10;71.20;;;;;;5050677;28;20025;-74
2022/04/13 05:14:34;;;;;;;6.43;3.13;;;12.20;70.60;;;;;;5049510;28;20040;-74
2022/04/13 05:17:00;;;;;;;7.28;3.53;;;12.30;70.70;;;;;;5050503;28;20025;-74
2022/04/13 05:19:25;;;;;;;7.75;3.50;;;12.40;70.40;;;;;;5050854;28;20100;-75
2022/04/13 05:21:51;;;;;;;6.97;3.00;;;12.50;69.70;;;;;;5050611;28;20048;-76
2022/04/13 05:24:16;;;;;;;5.13;2.70;;;12.50;69.60;;;;;;5050504;28;20029;-76
2022/04/13 05:26:42;;;;;;;11.13;3.92;;;12.60;69.40;;;;;;5050429;28;20032;-76
2022/04/13 05:29:07;;;;;;;8.13;3.25;;;12.70;69.80;;;;;;5050239;28;20025;-76
2022/04/13 05:31:33;;;;;;;10.23;3.22;;;12.80;69.10;;;;;;5050731;28;20047;-76
2022/04/13 05:33:59;;;;;;;11.60;3.60;;;12.80;68.50;;;;;;5049302;28;20455;-76
2022/04/13 05:36:24;;;;;;;7.35;2.78;;;12.90;68.30;;;;;;5049907;28;20044;-75
2022/04/13 05:38:50;;;;;;;6.22;3.42;;;13.00;68.10;;;;;;5050144;28;20173;-75
2022/04/13 05:41:15;;;;;;;11.30;3.28;;;13.10;68.20;;;;;;5050315;28;20045;-76
2022/04/13 05:43:41;;;;;;;7.47;3.17;;;13.20;68.00;;;;;;5050558;28;20365;-75
2022/04/13 05:46:06;;;;;;;6.38;3.10;;;13.20;67.60;;;;;;5050211;28;20033;-76
2022/04/13 05:48:32;;;;;;;9.15;3.00;;;13.30;67.50;;;;;;5050313;28;20040;-74
2022/04/13 05:50:59;;;;;;;6.82;2.90;;;13.40;67.10;;;;;;5050098;28;20121;-76
2022/04/13 05:53:25;;;;;;;6.90;3.03;;;13.40;67.20;;;;;;5050104;28;20032;-74
2022/04/13 05:55:55;;;;;;;5.97;3.15;;;13.50;66.70;;;;;;5049733;28;20036;-74
2022/04/13 05:58:25;;;;;;;5.60;2.75;;;13.60;66.80;;;;;;5050445;28;20024;-75
2022/04/13 06:00:50;;;;;;;6.97;3.10;;;13.70;66.70;;;;;;5050060;28;20047;-75
2022/04/13 06:03:17;;;;;;;6.43;2.70;;;13.80;66.50;;;;;;5049957;28;20030;-75
2022/04/13 06:05:44;;;;;;;6.15;2.75;;;13.90;66.00;;;;;;5050012;28;20053;-76
2022/04/13 06:08:09;;;;;;;10.48;3.60;;;14.00;65.70;;;;;;5050444;28;20059;-76
2022/04/13 06:10:35;;;;;;;7.50;2.85;;;14.10;66.80;;;;;;5049325;28;20036;-75
2022/04/13 06:13:00;;;;;;;5.10;2.45;;;14.10;65.40;;;;;;5050025;28;20029;-75
2022/04/13 06:15:28;;;;;;;4.78;2.78;;;14.20;65.20;;;;;;5049876;28;20029;-75
2022/04/13 06:17:54;;;;;;;5.45;3.08;;;14.20;64.80;;;;;;5050017;28;20095;-73
2022/04/13 06:20:20;;;;;;;8.23;2.80;;;14.20;64.80;;;;;;5050069;28;20115;-71
2022/04/13 06:22:46;;;;;;;7.82;4.05;;;14.20;64.40;;;;;;5049793;28;20426;-72
2022/04/13 06:25:12;;;;;;;7.70;3.78;;;14.40;64.60;;;;;;5050371;28;20025;-74
2022/04/13 06:27:40;;;;;;;10.80;3.97;;;14.40;64.80;;;;;;5049896;28;20033;-76
2022/04/13 06:30:07;;;;;;;8.50;3.25;;;14.50;64.20;;;;;;5048415;28;20493;-74
2022/04/13 06:32:41;;;;;;;6.00;3.78;;;14.60;64.10;;;;;;5049458;28;20463;-71
2022/04/13 06:35:09;;;;;;;5.88;3.40;;;14.70;63.70;;;;;;5049704;28;20051;-71
2022/04/13 06:37:36;;;;;;;9.18;4.05;;;14.70;63.50;;;;;;5050095;28;20131;-71
2022/04/13 06:40:02;;;;;;;10.13;3.00;;;14.80;63.60;;;;;;5050041;28;20033;-73
2022/04/13 06:42:32;;;;;;;4.85;2.55;;;14.80;63.50;;;;;;5048738;28;20029;-71
2022/04/13 06:44:58;;;;;;;6.72;2.85;;;15.00;63.60;;;;;;5051778;28;20409;-71
2022/04/13 06:47:24;;;;;;;6.50;2.90;;;15.00;63.20;;;;;;5053066;28;20055;-71
2022/04/13 06:49:50;;;;;;;7.82;3.25;;;15.10;62.80;;;;;;5051878;28;20355;-72
2022/04/13 06:52:15;;;;;;;8.45;3.55;;;15.10;62.70;;;;;;5053683;28;20028;-70
2022/04/13 06:54:41;;;;;;;5.93;3.70;;;15.20;62.40;;;;;;5052944;28;20029;-72
2022/04/13 06:57:07;;;;;;;10.02;3.20;;;15.20;62.60;;;;;;5051916;28;20033;-70
2022/04/13 06:59:33;;;;;;;5.35;2.50;;;15.30;62.40;;;;;;5052934;28;20056;-71
2022/04/13 07:01:58;;;;;;;4.82;2.30;;;15.40;62.60;;;;;;5052010;28;20044;-71
2022/04/13 07:04:24;;;;;;;6.15;2.65;;;15.40;62.00;;;;;;5053393;28;20060;-72
2022/04/13 07:06:50;;;;;;;5.90;2.80;;;15.50;61.90;;;;;;5053035;28;20025;-70
2022/04/13 07:09:15;;;;;;;10.38;2.13;;;15.60;62.40;;;;;;5052961;28;20526;-71
2022/04/13 07:11:41;;;;;;;4.82;2.13;;;15.70;62.00;;;;;;5052636;28;20033;-71
2022/04/13 07:14:07;;;;;;;7.18;2.50;;;15.80;61.90;;;;;;5051537;28;20293;-71
2022/04/13 07:16:33;;;;;;;4.47;2.72;;;15.90;61.70;;;;;;5051939;28;20025;-71
2022/04/13 07:18:58;;;;;;;7.13;2.65;;;16.00;61.60;;;;;;5052750;28;20026;-71
2022/04/13 07:21:24;;;;;;;7.45;2.45;;;16.10;61.40;;;;;;5052538;28;20029;-70
2022/04/13 07:23:49;;;;;;;7.13;2.40;;;16.20;60.90;;;;;;5052716;28;20025;-70
2022/04/13 07:26:15;;;;;;;8.02;2.70;;;16.40;60.90;;;;;;5052442;28;20068;-70
2022/04/13 07:28:41;;;;;;;5.18;2.60;;;16.50;60.40;;;;;;5052710;28;20033;-69
2022/04/13 07:31:06;;;;;;;9.93;3.63;;;16.70;59.90;;;;;;5052470;28;20035;-71
2022/04/13 07:33:32;;;;;;;3.80;2.20;;;16.80;60.20;;;;;;5052720;28;20029;-70
2022/04/13 07:35:58;;;;;;;6.90;2.47;;;16.80;59.30;;;;;;5051888;28;20041;-70
2022/04/13 07:38:24;;;;;;;5.35;2.35;;;17.00;59.10;;;;;;5052201;28;20455;-73
2022/04/13 07:40:49;;;;;;;7.43;2.35;;;17.10;59.00;;;;;;5051905;28;20025;-70
2022/04/13 07:43:15;;;;;;;4.30;2.10;;;17.20;58.60;;;;;;5052570;28;20430;-71
2022/04/13 07:45:43;;;;;;;3.70;2.35;;;17.40;58.40;;;;;;5051876;28;20025;-70
2022/04/13 07:48:08;;;;;;;4.07;2.45;;;17.50;58.00;;;;;;5052174;28;20082;-71
2022/04/13 07:50:37;;;;;;;5.88;2.67;;;17.60;57.60;;;;;;5051819;28;20033;-70
2022/04/13 07:53:02;;;;;;;2.50;1.63;;;17.70;57.10;;;;;;5051886;28;20064;-71
2022/04/13 07:55:28;;;;;;;3.47;2.15;;;17.80;57.10;;;;;;5051512;28;20338;-72
2022/04/13 07:57:53;;;;;;;9.82;2.60;;;18.00;56.70;;;;;;5051539;28;20116;-70
2022/04/13 08:00:20;;;;;;;4.53;2.10;;;18.30;56.60;;;;;;5051847;28;20124;-73
2022/04/13 08:02:45;;;;;;;8.38;2.25;;;18.50;56.20;;;;;;5050708;28;20393;-72
2022/04/13 08:05:13;;;;;;;7.90;3.00;;;18.70;55.90;;;;;;5050657;28;20047;-71
2022/04/13 08:07:39;;;;;;;5.63;2.80;;;18.80;55.50;;;;;;5052070;28;20048;-71
2022/04/13 08:10:06;;;;;;;4.60;2.58;;;19.00;55.10;;;;;;5051655;28;20025;-72
2022/04/13 08:12:31;;;;;;;7.65;1.90;;;19.20;55.00;;;;;;5051624;28;20037;-73
2022/04/13 08:14:58;;;;;;;9.45;3.67;;;19.60;54.70;;;;;;5051544;28;20032;-73
2022/04/13 08:17:25;;;;;;;5.97;2.72;;;20.00;53.90;;;;;;5051402;28;20124;-73
2022/04/13 08:19:51;;;;;;;8.20;2.92;;;20.30;53.80;;;;;;5051365;28;20039;-74
2022/04/13 08:22:23;;;;;;;5.57;2.50;;;20.30;53.10;;;;;;5051954;28;20021;-83
2022/04/13 08:24:48;;;;;;;3.72;2.10;;;20.40;52.90;;;;;;5051529;28;20080;-74
2022/04/13 08:27:14;;;;;;;6.47;2.47;;;20.70;52.70;;;;;;5051362;28;20041;-74
2022/04/13 08:29:40;;;;;;;8.05;2.30;;;21.50;52.80;;;;;;5051201;28;20032;-73
2022/04/13 08:32:05;;;;;;;9.90;3.58;;;22.80;54.30;;;;;;5051158;28;20056;-72
2022/04/13 08:34:32;;;;;;;5.78;2.30;;;23.50;50.70;;;;;;5051486;28;20037;-72
2022/04/13 08:36:57;;;;;;;5.47;3.03;;;24.20;49.00;;;;;;5051035;28;20045;-71
2022/04/13 08:39:23;;;;;;;8.30;2.80;;;24.60;47.30;;;;;;5051139;28;20041;-71
2022/04/13 08:41:57;;;;;;;3.97;2.20;;;25.50;47.10;;;;;;5051022;28;20036;-72
2022/04/13 08:44:34;;;;;;;5.75;2.60;;;25.90;45.90;;;;;;5050719;28;20474;-73
2022/04/13 08:47:04;;;;;;;2.90;2.10;;;26.30;44.70;;;;;;5050862;28;20037;-73
2022/04/13 08:49:32;;;;;;;5.25;2.20;;;27.20;45.20;;;;;;5051416;28;20036;-72
2022/04/13 08:52:03;;;;;;;4.88;2.42;;;27.30;42.40;;;;;;5050918;28;20059;-74
2022/04/13 08:54:32;;;;;;;5.90;2.35;;;27.90;42.30;;;;;;5050883;28;20395;-74
2022/04/13 08:57:02;;;;;;;6.90;2.80;;;28.20;43.00;;;;;;5049600;28;20097;-73
2022/04/13 08:59:55;;;;;;;5.68;2.22;;;28.30;40.50;;;;;;5050780;28;20044;-74
2022/04/13 09:02:43;;;;;;;4.05;2.25;;;29.00;41.10;;;;;;5039750;28;20254;-73
2022/04/13 09:05:12;;;;;;;5.63;2.53;;;29.50;39.80;;;;;;5050583;28;20048;-74
2022/04/13 09:07:41;;;;;;;4.82;2.50;;;29.50;38.80;;;;;;5050848;28;20088;-72
2022/04/13 09:10:11;;;;;;;5.70;2.38;;;29.80;38.70;;;;;;5050534;28;20037;-71
2022/04/13 09:12:38;;;;;;;5.82;2.28;;;30.20;38.90;;;;;;5049456;28;20025;-73
2022/04/13 09:15:05;;;;;;;5.18;2.45;;;30.00;38.10;;;;;;5032914;28;20067;-71
2022/04/13 09:17:31;;;;;;;9.80;2.55;;;30.20;38.00;;;;;;5050180;28;20057;-74
2022/04/13 09:19:57;;;;;;;5.65;2.50;;;29.80;37.60;;;;;;5050385;28;20043;-72
2022/04/13 09:22:23;;;;;;;4.20;2.05;;;30.10;37.70;;;;;;5050902;28;20407;-71
2022/04/13 09:24:50;;;;;;;6.20;2.33;;;30.00;37.90;;;;;;5050343;28;20036;-73
2022/04/13 09:27:17;;;;;;;8.05;2.88;;;30.50;38.20;;;;;;5049757;28;20044;-73
2022/04/13 09:29:43;;;;;;;6.93;3.42;;;30.90;37.30;;;;;;5050094;28;20029;-74
2022/04/13 09:32:09;;;;;;;8.30;2.78;;;31.00;37.40;;;;;;5050306;28;20362;-72
2022/04/13 09:34:34;;;;;;;7.22;3.15;;;30.70;36.90;;;;;;5050554;28;20336;-71
2022/04/13 09:37:00;;;;;;;8.55;2.45;;;30.50;36.80;;;;;;5049771;28;20060;-72
2022/04/13 09:39:26;;;;;;;4.78;2.60;;;30.80;37.20;;;;;;5049153;28;20036;-75
2022/04/13 09:41:52;;;;;;;5.07;2.50;;;30.60;36.90;;;;;;5048988;28;20103;-72
2022/04/13 09:44:18;;;;;;;8.40;2.88;;;30.70;37.10;;;;;;5050191;28;20359;-72
2022/04/13 09:46:45;;;;;;;11.43;3.42;;;30.70;36.90;;;;;;5049903;28;20039;-73
2022/04/13 09:49:15;;;;;;;9.00;3.10;;;30.40;36.60;;;;;;5050319;28;20032;-75
2022/04/13 09:51:49;;;;;;;6.50;2.85;;;30.40;36.60;;;;;;5049728;28;20048;-72
2022/04/13 09:54:15;;;;;;;11.07;3.80;;;31.00;37.20;;;;;;5048794;28;20532;-73
2022/04/13 09:56:48;;;;;;;5.13;2.90;;;31.90;36.20;;;;;;5049705;28;20066;-72
2022/04/13 09:59:28;;;;;;;7.60;2.85;;;31.90;36.20;;;;;;5049746;28;20127;-74
2022/04/13 10:01:54;;;;;;;6.85;2.63;;;32.30;36.00;;;;;;5049539;28;20095;-71
2022/04/13 10:04:31;;;;;;;9.68;3.10;;;32.30;35.80;;;;;;5050172;28;20075;-71
2022/04/13 10:07:18;;;;;;;5.00;2.83;;;31.90;35.20;;;;;;5050108;28;20243;-73
2022/04/13 10:09:43;;;;;;;11.88;3.00;;;31.60;35.80;;;;;;5049796;28;20079;-74
2022/04/13 10:12:09;;;;;;;13.98;3.60;;;31.60;36.40;;;;;;5048678;28;20029;-73
2022/04/13 10:14:35;;;;;;;12.57;2.67;;;30.90;37.50;;;;;;5049923;28;20025;-77
2022/04/13 10:17:07;;;;;;;10.73;3.22;;;30.20;38.40;;;;;;5049688;28;20025;-76
2022/04/13 10:19:32;;;;;;;10.15;3.78;;;30.90;38.60;;;;;;5051633;28;20033;-76
2022/04/13 10:21:59;;;;;;;8.93;2.85;;;31.60;38.00;;;;;;5052292;28;20029;-77
2022/04/13 10:24:30;;;;;;;10.90;2.70;;;32.10;37.50;;;;;;5053358;28;20693;-83
2022/04/13 10:27:13;;;;;;;12.38;3.03;;;32.30;37.50;;;;;;5053463;28;20068;-74
2022/04/13 10:29:41;;;;;;;8.25;2.22;;;32.30;36.90;;;;;;5052418;28;20029;-73
2022/04/13 10:32:26;;;;;;;15.38;2.45;;;32.40;37.30;;;;;;5053265;28;20526;-74
2022/04/13 10:34:59;;;;;;;9.52;2.63;;;32.70;37.60;;;;;;5053117;28;20410;-72
2022/04/13 10:37:26;;;;;;;11.75;2.85;;;32.70;37.00;;;;;;5052381;28;20052;-75
2022/04/13 10:39:52;;;;;;;13.00;3.47;;;32.70;37.10;;;;;;5053316;28;20025;-74
2022/04/13 10:42:19;;;;;;;13.02;3.17;;;33.30;37.20;;;;;;5053271;28;20040;-75
2022/04/13 10:45:03;;;;;;;6.47;2.60;;;33.10;36.40;;;;;;5053215;28;20029;-76
2022/04/13 10:47:58;;;;;;;17.17;6.28;;;32.70;36.70;;;;;;5053029;28;20060;-76
2022/04/13 10:50:45;;;;;;;9.70;2.50;;;32.40;36.90;;;;;;5053114;28;20033;-75
2022/04/13 10:53:14;;;;;;;;;;;31.80;37.30;;;;;;5052379;28;20075;-75
2022/04/13 10:55:40;;;;;;;10.68;2.72;;;32.60;37.30;;;;;;5053965;28;19927;-75
2022/04/13 10:58:18;;;;;;;7.40;2.60;;;32.50;37.30;;;;;;5052794;28;20033;-76
2022/04/13 11:00:49;;;;;;;7.00;2.88;;;32.40;37.10;;;;;;5052703;28;20028;-74
2022/04/13 11:03:16;;;;;;;10.25;2.88;;;31.10;37.90;;;;;;5052885;28;20099;-75
2022/04/13 11:05:42;;;;;;;11.98;3.78;;;31.20;38.70;;;;;;5052700;28;20021;-75
2022/04/13 11:08:14;;;;;;;9.15;2.90;;;31.30;38.70;;;;;;5052832;28;20082;-74
2022/04/13 11:10:42;;;;;;;16.88;3.00;;;30.70;39.50;;;;;;5052097;28;20025;-75
2022/04/13 11:13:08;;;;;;;11.07;3.15;;;30.20;40.00;;;;;;5053010;28;20044;-75
2022/04/13 11:15:45;;;;;;;7.32;2.33;;;29.40;40.80;;;;;;5051564;28;20029;-72
2022/04/13 11:18:20;;;;;;;11.85;2.60;;;29.40;41.40;;;;;;5052469;28;20040;-72
2022/04/13 11:21:08;;;;;;;9.95;2.95;;;29.00;42.10;;;;;;5052450;28;20017;-73
2022/04/13 11:23:49;;;;;;;9.35;3.08;;;28.80;42.50;;;;;;5052571;28;20025;-74
2022/04/13 11:26:33;;;;;;;14.02;3.22;;;28.60;42.60;;;;;;5051250;28;20037;-74
2022/04/13 11:29:17;;;;;;;17.20;2.90;;;28.30;42.20;;;;;;5052199;28;20024;-75
2022/04/13 11:32:00;;;;;;;10.70;2.80;;;27.60;42.60;;;;;;5051218;28;20116;-75
2022/04/13 11:34:33;;;;;;;11.63;3.10;;;27.70;42.90;;;;;;5052690;28;20454;-74
2022/04/13 11:37:01;;;;;;;12.57;2.97;;;27.50;43.30;;;;;;5051693;28;20053;-75
2022/04/13 11:39:45;;;;;;;;;;;27.50;43.50;;;;;;5056169;28;20102;-76
2022/04/13 11:42:40;;;;;;;13.30;2.22;;;27.50;43.10;;;;;;5052217;28;19970;-75
2022/04/13 11:45:05;;;;;;;9.82;2.00;;;27.20;43.10;;;;;;5051941;28;20031;-75
2022/04/13 11:47:46;;;;;;;11.20;2.28;;;27.20;43.60;;;;;;5051928;28;20021;-77
2022/04/13 11:50:12;;;;;;;6.53;1.95;;;26.90;44.00;;;;;;5051934;28;20522;-75
2022/04/13 11:53:05;;;;;;;9.85;2.08;;;26.90;44.10;;;;;;5052395;28;20464;-75
2022/04/13 11:55:40;;;;;;;8.82;2.55;;;26.90;43.80;;;;;;5051843;28;20079;-71
2022/04/13 11:58:08;;;;;;;9.40;2.38;;;26.90;43.90;;;;;;5050471;28;20262;-71
2022/04/13 12:00:56;;;;;;;10.10;4.70;;;26.70;44.50;;;;;;5051827;28;20094;-73
2022/04/13 12:03:34;;;;;;;16.40;2.35;;;26.70;44.80;;;;;;5050812;28;20425;-74
2022/04/13 12:06:13;;;;;;;;;;;26.70;44.80;;;;;;5052540;28;20021;-74
2022/04/13 12:08:39;;;;;;;13.75;2.92;;;26.70;44.10;;;;;;5051855;28;19909;-72
2022/04/13 12:11:16;;;;;;;8.80;1.90;;;26.40;44.30;;;;;;5051591;28;20093;-78
2022/04/13 12:13:48;;;;;;;8.00;1.92;;;26.20;44.40;;;;;;5051516;28;20021;-80
2022/04/13 12:16:20;;;;;;;12.38;1.88;;;26.50;44.90;;;;;;5051926;28;20029;-73
2022/04/13 12:18:46;;;;;;;7.28;2.33;;;26.10;45.20;;;;;;5051362;28;20056;-73
2022/04/13 12:21:16;;;;;;;10.13;2.05;;;26.00;45.70;;;;;;5050310;28;20029;-73
2022/04/13 12:23:42;;;;;;;10.32;2.33;;;26.10;45.50;;;;;;5051530;28;20036;-73
2022/04/13 12:26:09;;;;;;;9.18;2.45;;;26.00;45.70;;;;;;5050182;28;20040;-74
2022/04/13 12:28:36;;;;;;;9.00;2.47;;;26.00;45.30;;;;;;5051639;28;20029;-74
2022/04/13 12:31:06;;;;;;;7.80;1.90;;;26.00;45.60;;;;;;5051167;28;20060;-74
2022/04/13 12:33:32;;;;;;;9.27;2.33;;;25.80;45.70;;;;;;5049922;28;20033;-73
2022/04/13 12:36:06;;;;;;;11.15;2.58;;;25.70;45.70;;;;;;5049808;28;20057;-71
2022/04/13 12:38:36;;;;;;;10.27;1.88;;;25.80;45.50;;;;;;5051101;28;20040;-74
2022/04/13 12:41:05;;;;;;;14.05;2.58;;;25.80;45.70;;;;;;5051128;28;20025;-73
2022/04/13 12:43:31;;;;;;;18.92;2.42;;;25.90;45.80;;;;;;5051044;28;20025;-73
2022/04/13 12:45:57;;;;;;;6.32;1.92;;;25.90;45.70;;;;;;5049991;28;20086;-72
2022/04/13 12:48:27;;;;;;;9.25;2.10;;;25.70;45.80;;;;;;5050865;28;20025;-74